Balfour, North Dakota
Current Conditions -  °F | °C
As of 11:15 AM on Friday 24 Oct 2014 (Local Time) from K5H4 Reporting Station
Scattered Clouds Scattered Clouds  
Wind Chill: 61°   Ceiling: Unl
Heat Index: 61°   Visibility: 10mi
Dew Point: 41°   Wind: 13mph
Humidity: 48%   Direction: 270°W
Pressure: 29.83"   Gusts: 18mph
Location:  47.95°N, 100.53°W
Report Text: K5H4 241615Z AUTO 27011G16KT 10SM SCT110 16/05 A2983 RMK AO2
Loading
Personal Weather Stations






























Interactive Weather Map
Tropical Storm Tracking
New forecast layout! Learn more

10-Day Weather Forecast

Advertisements
Track Severe Weather on mobile